createdAt,value
2023-01-25T00:00:13.551Z,1.86
2023-01-25T00:05:16.480Z,1.82
2023-01-25T00:10:19.977Z,1.82
2023-01-25T00:15:24.570Z,1.78
2023-01-25T00:20:27.832Z,1.84
2023-01-25T00:25:30.657Z,1.84
2023-01-25T00:30:34.874Z,1.77
2023-01-25T00:35:37.644Z,1.77
2023-01-25T00:40:40.419Z,1.73
2023-01-25T00:45:44.604Z,1.74
2023-01-25T00:50:47.498Z,1.71
2023-01-25T00:55:53.214Z,1.60
2023-01-25T01:00:57.852Z,1.64
2023-01-25T01:06:02.357Z,1.67
2023-01-25T01:11:07.126Z,1.71
2023-01-25T01:16:13.759Z,1.69
2023-01-25T01:21:16.644Z,1.57
2023-01-25T01:26:20.472Z,1.54
2023-01-25T01:31:25.270Z,1.12
2023-01-25T01:36:40.886Z,1.63
2023-01-25T01:41:43.809Z,1.61
2023-01-25T01:46:54.334Z,1.54
2023-01-25T01:52:02.091Z,1.50
2023-01-25T01:57:11.476Z,1.44
2023-01-25T02:02:16.095Z,1.38
2023-01-25T02:07:22.682Z,1.40
2023-01-25T02:12:26.567Z,1.42
2023-01-25T02:17:32.496Z,1.13
2023-01-25T02:22:40.878Z,1.30
2023-01-25T02:27:47.468Z,1.26
2023-01-25T02:32:50.456Z,1.14
2023-01-25T02:37:53.420Z,1.08
2023-01-25T02:42:57.692Z,1.10
2023-01-25T02:48:00.721Z,1.14
2023-01-25T02:53:03.602Z,1.20
2023-01-25T02:58:11.982Z,1.24
2023-01-25T03:03:15.858Z,1.24
2023-01-25T03:08:18.821Z,1.22
2023-01-25T03:13:26.088Z,1.20
2023-01-25T03:18:29.192Z,1.21
2023-01-25T03:23:32.194Z,1.20
2023-01-25T03:28:37.008Z,1.27
2023-01-25T03:33:40.448Z,1.31
2023-01-25T03:38:44.027Z,1.33
2023-01-25T03:43:49.149Z,1.30
2023-01-25T03:48:53.973Z,1.35
2023-01-25T03:53:56.867Z,1.39
2023-01-25T03:59:01.725Z,1.37
2023-01-25T04:04:04.691Z,1.38
2023-01-25T04:09:09.537Z,1.37
2023-01-25T04:14:25.523Z,1.40
2023-01-25T04:19:38.560Z,1.39
2023-01-25T04:24:48.267Z,1.40
2023-01-25T04:29:52.560Z,1.40
2023-01-25T04:34:56.965Z,1.38
2023-01-25T04:40:04.174Z,1.43
2023-01-25T04:45:13.630Z,1.41
2023-01-25T04:50:17.532Z,1.42
2023-01-25T04:55:21.601Z,1.37
2023-01-25T05:00:29.085Z,1.33
2023-01-25T05:05:35.529Z,1.25
2023-01-25T05:10:42.688Z,1.25
2023-01-25T05:16:13.630Z,1.17
2023-01-25T05:21:30.549Z,1.17
2023-01-25T05:26:51.320Z,1.16
2023-01-25T05:31:56.041Z,1.13
2023-01-25T05:36:58.969Z,1.13
2023-01-25T05:42:02.417Z,1.13
2023-01-25T05:47:06.764Z,1.12
2023-01-25T05:52:13.466Z,1.06
2023-01-25T05:57:17.207Z,0.95
2023-01-25T06:02:22.310Z,0.92
2023-01-25T06:07:25.377Z,0.96
2023-01-25T06:12:29.475Z,0.99
2023-01-25T06:17:35.396Z,1.00
2023-01-25T06:22:44.251Z,0.99
2023-01-25T06:27:47.223Z,1.02
2023-01-25T06:32:51.426Z,0.97
2023-01-25T06:37:56.423Z,0.98
2023-01-25T06:43:07.215Z,1.04
2023-01-25T06:48:12.871Z,1.05
2023-01-25T06:53:16.520Z,1.06
2023-01-25T06:58:19.424Z,1.11
2023-01-25T07:03:23.672Z,1.09
2023-01-25T07:08:26.592Z,0.96
2023-01-25T07:13:31.071Z,0.88
2023-01-25T07:18:37.510Z,0.90
2023-01-25T07:23:41.585Z,0.94
2023-01-25T07:28:44.523Z,0.85
2023-01-25T07:33:50.475Z,0.71
2023-01-25T07:38:54.681Z,0.89
2023-01-25T07:43:57.715Z,0.93
2023-01-25T07:49:14.777Z,0.93
2023-01-25T07:54:17.649Z,0.95
2023-01-25T07:59:22.490Z,0.92
2023-01-25T08:04:26.812Z,0.91
2023-01-25T08:09:29.813Z,0.95
2023-01-25T08:14:32.861Z,0.94
2023-01-25T08:19:37.082Z,0.87
2023-01-25T08:24:40.108Z,0.93
2023-01-25T08:29:43.076Z,0.95
2023-01-25T08:34:47.290Z,1.01
2023-01-25T08:39:50.300Z,1.03
2023-01-25T08:44:53.190Z,1.07
2023-01-25T08:49:57.354Z,1.08
2023-01-25T08:55:00.875Z,1.10
2023-01-25T09:00:04.332Z,1.16
2023-01-25T09:05:09.633Z,1.16
2023-01-25T09:10:12.720Z,1.26
2023-01-25T09:15:15.740Z,1.25
2023-01-25T09:20:20.274Z,1.22
2023-01-25T09:25:23.391Z,1.26
2023-01-25T09:30:37.278Z,1.36
2023-01-25T09:35:50.176Z,1.29
2023-01-25T09:41:02.692Z,1.23
2023-01-25T09:46:13.816Z,1.35
2023-01-25T09:51:56.164Z,1.38
2023-01-25T09:56:59.804Z,1.37
2023-01-25T10:02:04.733Z,1.47
2023-01-25T10:07:20.338Z,1.61
2023-01-25T10:12:24.697Z,1.60
2023-01-25T10:17:33.152Z,1.58
2023-01-25T10:22:44.039Z,1.67
2023-01-25T10:27:55.543Z,1.68
2023-01-25T10:33:01.421Z,1.76
2023-01-25T10:38:11.108Z,1.80
2023-01-25T10:43:18.304Z,1.83
2023-01-25T10:48:26.713Z,1.86
2023-01-25T10:53:34.785Z,1.93
2023-01-25T10:58:39.461Z,2.08
2023-01-25T11:03:44.743Z,2.09
2023-01-25T11:08:50.512Z,2.06
2023-01-25T11:13:55.546Z,2.20
2023-01-25T11:18:59.389Z,2.17
2023-01-25T11:24:06.432Z,2.30
2023-01-25T11:29:14.479Z,2.26
2023-01-25T11:34:19.397Z,2.28
2023-01-25T11:39:35.484Z,2.35
2023-01-25T11:45:02.654Z,2.41
2023-01-25T11:50:09.666Z,2.40
2023-01-25T11:55:23.945Z,2.43
2023-01-25T12:00:53.244Z,2.52
2023-01-25T12:06:01.558Z,2.49
2023-01-25T12:11:09.554Z,2.41
2023-01-25T12:16:33.527Z,2.51
2023-01-25T12:21:50.611Z,2.58
2023-01-25T12:27:02.080Z,2.58
2023-01-25T12:32:08.689Z,2.68
2023-01-25T12:37:15.956Z,2.58
2023-01-25T12:42:22.649Z,2.58
2023-01-25T12:47:29.805Z,2.64
2023-01-25T12:52:35.173Z,2.66
2023-01-25T12:57:45.248Z,2.59
2023-01-25T13:03:01.788Z,2.68
2023-01-25T13:08:23.070Z,2.58
2023-01-25T13:13:30.922Z,2.61
2023-01-25T13:18:40.525Z,2.54
2023-01-25T13:23:47.204Z,2.56
2023-01-25T13:28:52.738Z,2.58
2023-01-25T13:33:55.625Z,2.60
2023-01-25T13:38:58.480Z,2.57
2023-01-25T13:44:31.877Z,2.52
2023-01-25T13:49:40.928Z,2.49
2023-01-25T13:54:45.042Z,2.48
2023-01-25T13:59:52.273Z,2.38
2023-01-25T14:04:55.721Z,2.42
2023-01-25T14:09:59.607Z,2.34
2023-01-25T14:15:18.730Z,2.38
2023-01-25T14:20:23.138Z,2.35
2023-01-25T14:25:27.060Z,2.33
2023-01-25T14:30:33.595Z,2.35
2023-01-25T14:35:43.261Z,2.27
2023-01-25T14:40:55.715Z,2.27
2023-01-25T14:45:59.968Z,2.24
2023-01-25T14:51:17.213Z,2.23
2023-01-25T14:56:29.121Z,2.27
2023-01-25T15:01:38.040Z,2.30
2023-01-25T15:06:48.575Z,2.21
2023-01-25T15:12:02.351Z,2.23
2023-01-25T15:17:06.511Z,2.25
2023-01-25T15:22:09.622Z,2.16
2023-01-25T15:27:12.953Z,2.14
2023-01-25T15:32:20.740Z,2.12
2023-01-25T15:37:23.575Z,2.14
2023-01-25T15:42:28.889Z,2.08
2023-01-25T15:47:33.326Z,2.06
2023-01-25T15:52:36.119Z,2.10
2023-01-25T15:57:38.978Z,2.05
2023-01-25T16:02:43.318Z,1.98
2023-01-25T16:07:46.971Z,1.91
2023-01-25T16:12:50.063Z,1.91
2023-01-25T16:17:54.322Z,1.85
2023-01-25T16:22:57.216Z,1.84
2023-01-25T16:28:00.081Z,1.74
2023-01-25T16:33:04.404Z,1.69
2023-01-25T16:38:07.392Z,1.71
2023-01-25T16:43:10.260Z,1.74
2023-01-25T16:48:16.374Z,1.75
2023-01-25T16:53:19.476Z,1.65
2023-01-25T16:58:22.292Z,1.60
2023-01-25T17:03:26.528Z,1.60
2023-01-25T17:08:29.409Z,1.65
2023-01-25T17:13:32.305Z,1.70
2023-01-25T17:18:36.534Z,1.62
2023-01-25T17:23:39.581Z,1.66
2023-01-25T17:28:42.798Z,1.67
2023-01-25T17:33:47.604Z,1.63
2023-01-25T17:38:50.571Z,1.68
2023-01-25T17:43:53.808Z,1.71
2023-01-25T17:48:58.659Z,1.71
2023-01-25T17:54:02.077Z,1.67
2023-01-25T17:59:08.709Z,1.69
2023-01-25T18:04:17.407Z,1.70
2023-01-25T18:09:20.515Z,1.66
2023-01-25T18:14:23.334Z,1.73
2023-01-25T18:19:31.145Z,1.76
2023-01-25T18:24:35.146Z,1.70
2023-01-25T18:29:56.653Z,1.71
2023-01-25T18:35:01.000Z,1.70
2023-01-25T18:40:03.815Z,1.57
2023-01-25T18:45:09.249Z,1.69
2023-01-25T18:50:16.293Z,1.71
2023-01-25T18:55:19.328Z,1.70
2023-01-25T19:00:22.249Z,1.69
2023-01-25T19:05:26.967Z,1.66
2023-01-25T19:10:29.759Z,1.69
2023-01-25T19:15:34.485Z,1.64
2023-01-25T19:20:38.740Z,1.69
2023-01-25T19:25:41.575Z,1.60
2023-01-25T19:30:44.582Z,1.60
2023-01-25T19:35:48.836Z,1.53
2023-01-25T19:40:51.684Z,1.52
2023-01-25T19:45:54.488Z,1.54
2023-01-25T19:51:08.088Z,1.56
2023-01-25T19:56:11.010Z,1.58
2023-01-25T20:01:16.242Z,1.60
2023-01-25T20:06:21.466Z,1.55
2023-01-25T20:11:25.563Z,1.61
2023-01-25T20:16:30.475Z,1.59
2023-01-25T20:21:38.053Z,1.58
2023-01-25T20:26:43.096Z,1.60
2023-01-25T20:31:47.117Z,1.58
2023-01-25T20:36:51.974Z,1.55
2023-01-25T20:41:56.674Z,1.52
2023-01-25T20:46:59.699Z,1.54
2023-01-25T20:52:05.165Z,1.22
2023-01-25T20:57:08.095Z,1.38
2023-01-25T21:02:11.623Z,1.30
2023-01-25T21:07:15.853Z,1.46
2023-01-25T21:12:18.716Z,1.45
2023-01-25T21:17:21.532Z,1.47
2023-01-25T21:22:25.850Z,1.47
2023-01-25T21:27:29.610Z,1.47
2023-01-25T21:32:32.425Z,1.49
2023-01-25T21:37:36.558Z,1.52
2023-01-25T21:42:39.353Z,1.52
2023-01-25T21:47:42.172Z,1.52
2023-01-25T21:52:46.449Z,1.50
2023-01-25T21:57:51.680Z,1.42
2023-01-25T22:02:56.411Z,1.95
2023-01-25T22:08:00.878Z,2.12
2023-01-25T22:13:03.763Z,2.45
2023-01-25T22:18:06.693Z,2.56
2023-01-25T22:23:10.931Z,2.66
2023-01-25T22:28:15.204Z,2.43
2023-01-25T22:33:18.563Z,2.44
2023-01-25T22:38:22.756Z,2.47
2023-01-25T22:43:25.618Z,2.58
2023-01-25T22:48:28.911Z,2.82
2023-01-25T22:53:33.588Z,3.08
2023-01-25T22:58:37.238Z,2.92
2023-01-25T23:03:40.094Z,2.80
2023-01-25T23:08:44.558Z,2.90
2023-01-25T23:14:07.690Z,3.11
2023-01-25T23:19:10.627Z,3.19
2023-01-25T23:24:14.855Z,3.31
2023-01-25T23:29:17.692Z,3.73
2023-01-25T23:34:20.474Z,3.97
2023-01-25T23:39:24.701Z,3.29
2023-01-25T23:44:27.946Z,3.28
2023-01-25T23:49:30.846Z,3.78
2023-01-25T23:54:35.108Z,3.76
2023-01-25T23:59:37.974Z,4.00
